Time;durP1;ratioP1;P1;durP2;ratioP2;P2;SDS_P1;SDS_P2;PMS_P1;PMS_P2;Temp;Humidity;BMP_temperature;BMP_pressure;BME280_temperature;BME280_humidity;BME280_pressure;Samples;Min_cycle;Max_cycle;Signal;HPM_P1;HPM_P2
2024/03/10 00:01:48;;;;;;;18.63;13.18;;;9.80;99.90;;;;;;5087632;28;20048;-78
2024/03/10 00:04:13;;;;;;;18.80;12.57;;;9.70;99.90;;;;;;5091544;28;20027;-79
2024/03/10 00:06:39;;;;;;;17.83;12.77;;;9.70;99.90;;;;;;5073485;28;20163;-79
2024/03/10 00:09:05;;;;;;;19.08;12.98;;;9.70;99.90;;;;;;5090330;28;20028;-78
2024/03/10 00:11:30;;;;;;;19.48;13.52;;;9.70;99.90;;;;;;5088804;28;20026;-78
2024/03/10 00:13:56;;;;;;;18.83;13.35;;;9.70;99.90;;;;;;5088875;28;20036;-78
2024/03/10 00:16:22;;;;;;;18.67;12.82;;;9.70;99.90;;;;;;5089012;28;20054;-79
2024/03/10 00:18:48;;;;;;;18.70;13.73;;;9.70;99.90;;;;;;5088393;28;20038;-78
2024/03/10 00:21:15;;;;;;;19.67;13.30;;;9.70;99.90;;;;;;5071114;28;20110;-79
2024/03/10 00:23:41;;;;;;;18.00;13.35;;;9.70;99.90;;;;;;5088313;28;20063;-79
2024/03/10 00:26:07;;;;;;;21.27;13.35;;;9.70;99.90;;;;;;5070407;28;20051;-79
2024/03/10 00:28:36;;;;;;;19.77;13.52;;;9.70;99.90;;;;;;5088509;28;20081;-78
2024/03/10 00:31:01;;;;;;;19.38;13.93;;;9.70;99.90;;;;;;5088651;28;20052;-79
2024/03/10 00:33:27;;;;;;;18.38;13.00;;;9.70;99.90;;;;;;5088640;28;20449;-79
2024/03/10 00:35:53;;;;;;;19.20;14.23;;;9.70;99.90;;;;;;5088245;28;20043;-79
2024/03/10 00:38:19;;;;;;;19.08;13.27;;;9.70;99.90;;;;;;5087949;28;20034;-79
2024/03/10 00:40:46;;;;;;;19.45;13.40;;;9.70;99.90;;;;;;5088539;28;20084;-79
2024/03/10 00:43:12;;;;;;;20.13;13.75;;;9.70;99.90;;;;;;5087994;28;20113;-79
2024/03/10 00:45:37;;;;;;;18.65;13.27;;;9.70;99.90;;;;;;5088145;28;20439;-79
2024/03/10 00:48:04;;;;;;;19.23;13.82;;;9.70;99.90;;;;;;5069851;28;20043;-79
2024/03/10 00:50:30;;;;;;;20.30;13.75;;;9.60;99.90;;;;;;5088272;28;20040;-78
2024/03/10 00:52:56;;;;;;;21.05;13.80;;;9.60;99.90;;;;;;5087571;28;20372;-78
2024/03/10 00:55:21;;;;;;;21.38;13.77;;;9.60;99.90;;;;;;5088857;28;20055;-77
2024/03/10 00:57:47;;;;;;;19.48;14.38;;;9.60;99.90;;;;;;5088818;28;20028;-78
2024/03/10 01:00:13;;;;;;;18.80;13.27;;;9.60;99.90;;;;;;5088855;28;20481;-79
2024/03/10 01:02:39;;;;;;;19.05;13.45;;;9.60;99.90;;;;;;5090844;28;20032;-76
2024/03/10 01:05:06;;;;;;;19.60;13.75;;;9.60;99.90;;;;;;5092715;28;20103;-78
2024/03/10 01:07:32;;;;;;;19.55;14.00;;;9.60;99.90;;;;;;5087890;28;20020;-78
2024/03/10 01:09:58;;;;;;;19.17;14.05;;;9.60;99.90;;;;;;5088337;28;20073;-79
2024/03/10 01:12:23;;;;;;;19.88;13.48;;;9.60;99.90;;;;;;5087515;28;20024;-78
2024/03/10 01:14:49;;;;;;;19.65;13.60;;;9.60;99.90;;;;;;5087871;28;20027;-78
2024/03/10 01:17:15;;;;;;;20.08;14.43;;;9.50;99.90;;;;;;5087831;28;20038;-79
2024/03/10 01:19:40;;;;;;;17.67;12.75;;;9.50;99.90;;;;;;5088115;28;20012;-78
2024/03/10 01:22:06;;;;;;;18.73;13.90;;;9.50;99.90;;;;;;5086206;28;20028;-78
2024/03/10 01:24:32;;;;;;;18.95;13.63;;;9.50;99.90;;;;;;5088119;28;20106;-78
2024/03/10 01:26:58;;;;;;;19.25;13.82;;;9.50;99.90;;;;;;5087171;28;20024;-79
2024/03/10 01:29:25;;;;;;;19.75;13.85;;;9.50;99.90;;;;;;5088010;28;20028;-77
2024/03/10 01:31:51;;;;;;;21.30;14.35;;;9.50;99.90;;;;;;5087191;28;20027;-80
2024/03/10 01:34:19;;;;;;;20.85;14.07;;;9.40;99.90;;;;;;5088008;28;20025;-79
2024/03/10 01:36:45;;;;;;;20.52;14.55;;;9.40;99.90;;;;;;5072814;28;20489;-79
2024/03/10 01:39:11;;;;;;;22.05;14.52;;;9.40;99.90;;;;;;5087283;28;20649;-78
2024/03/10 01:41:37;;;;;;;21.88;13.43;;;9.40;99.90;;;;;;5068792;28;20043;-79
2024/03/10 01:44:03;;;;;;;19.95;14.27;;;9.40;99.90;;;;;;5086869;28;20536;-79
2024/03/10 01:46:29;;;;;;;20.00;14.45;;;9.40;99.90;;;;;;5087473;28;20028;-79
2024/03/10 01:48:55;;;;;;;23.63;15.70;;;9.40;99.90;;;;;;5086597;28;20514;-78
2024/03/10 01:51:21;;;;;;;20.88;14.95;;;9.40;99.90;;;;;;5087541;28;20461;-78
2024/03/10 01:53:47;;;;;;;22.33;14.07;;;9.40;99.90;;;;;;5087448;28;20111;-76
2024/03/10 01:56:13;;;;;;;21.02;15.48;;;9.40;99.90;;;;;;5088614;28;20020;-79
2024/03/10 01:58:44;;;;;;;20.83;15.30;;;9.40;99.90;;;;;;5087413;28;20036;-78
2024/03/10 02:01:12;;;;;;;19.70;14.75;;;9.30;99.90;;;;;;5088552;28;20770;-77
2024/03/10 02:03:38;;;;;;;20.13;14.80;;;9.30;99.90;;;;;;5087209;28;20020;-79
2024/03/10 02:06:09;;;;;;;22.05;15.43;;;9.30;99.90;;;;;;5069700;28;20016;-76
2024/03/10 02:08:38;;;;;;;23.35;14.95;;;9.30;99.90;;;;;;5087561;28;20043;-78
2024/03/10 02:11:06;;;;;;;22.25;14.40;;;9.30;99.90;;;;;;5086677;28;20477;-81
2024/03/10 02:13:32;;;;;;;21.63;14.95;;;9.30;99.90;;;;;;5068070;28;20144;-79
2024/03/10 02:15:59;;;;;;;21.38;14.07;;;9.30;99.90;;;;;;5086631;28;20028;-79
2024/03/10 02:18:26;;;;;;;20.45;14.40;;;9.30;99.90;;;;;;5086326;28;20511;-78
2024/03/10 02:20:53;;;;;;;19.33;13.50;;;9.30;99.90;;;;;;5086944;28;20028;-79
2024/03/10 02:23:20;;;;;;;22.92;15.60;;;9.30;99.90;;;;;;5086715;28;20016;-79
2024/03/10 02:25:48;;;;;;;20.65;14.80;;;9.30;99.90;;;;;;5086416;28;20028;-78
2024/03/10 02:28:23;;;;;;;20.65;14.20;;;9.20;99.90;;;;;;5072195;28;20478;-78
2024/03/10 02:30:58;;;;;;;21.30;14.52;;;9.20;99.90;;;;;;5086209;28;20531;-79
2024/03/10 02:47:12;;;;;;;19.38;13.88;;;9.10;99.90;;;;;;5086063;28;20256;-79
2024/03/10 02:49:42;;;;;;;19.80;14.48;;;9.10;99.90;;;;;;5086219;28;20060;-79
2024/03/10 02:52:12;;;;;;;20.65;14.15;;;9.10;99.90;;;;;;5085904;28;20024;-80
2024/03/10 02:54:39;;;;;;;20.05;14.65;;;9.10;99.90;;;;;;5086473;28;20099;-79
2024/03/10 02:57:06;;;;;;;20.38;14.40;;;9.10;99.90;;;;;;5067689;28;20039;-78
2024/03/10 02:59:32;;;;;;;20.35;14.40;;;9.10;99.90;;;;;;5086437;28;20044;-79
2024/03/10 03:01:58;;;;;;;21.02;14.65;;;9.10;99.90;;;;;;5085924;28;20401;-79
2024/03/10 03:04:28;;;;;;;21.73;15.77;;;9.10;99.90;;;;;;5067569;28;20428;-79
2024/03/10 03:06:54;;;;;;;20.23;14.17;;;9.10;99.90;;;;;;5086113;28;20185;-79
2024/03/10 03:09:20;;;;;;;22.55;15.40;;;9.00;99.90;;;;;;5085900;28;20217;-79
2024/03/10 03:11:47;;;;;;;21.77;14.40;;;9.10;99.90;;;;;;5085798;28;20020;-79
2024/03/10 03:14:13;;;;;;;22.13;14.38;;;9.00;99.90;;;;;;5067880;28;20173;-79
2024/03/10 03:16:45;;;;;;;23.45;16.25;;;9.00;99.90;;;;;;5086778;28;20024;-78
2024/03/10 03:19:13;;;;;;;19.83;14.00;;;9.00;99.90;;;;;;5085533;28;20028;-77
2024/03/10 03:21:39;;;;;;;21.88;14.82;;;9.00;99.90;;;;;;5068864;28;20030;-78
2024/03/10 03:24:08;;;;;;;20.73;15.38;;;9.00;99.90;;;;;;5085974;28;20109;-78
2024/03/10 03:26:36;;;;;;;23.70;15.68;;;9.00;99.90;;;;;;5072421;28;20043;-78
2024/03/10 03:29:04;;;;;;;20.98;15.77;;;9.00;99.90;;;;;;5067216;28;20485;-79
2024/03/10 03:31:30;;;;;;;23.58;16.45;;;8.90;99.90;;;;;;5085765;28;20035;-79
2024/03/10 03:33:56;;;;;;;22.48;16.40;;;8.90;99.90;;;;;;5066973;28;20012;-78
2024/03/10 03:36:22;;;;;;;22.33;15.00;;;8.90;99.90;;;;;;5085636;28;20035;-79
2024/03/10 03:38:47;;;;;;;18.42;14.02;;;8.90;99.90;;;;;;5085507;28;20028;-79
2024/03/10 03:41:13;;;;;;;21.75;15.18;;;8.90;99.90;;;;;;5067550;28;20096;-79
2024/03/10 03:43:38;;;;;;;21.50;15.43;;;8.90;99.90;;;;;;5067129;28;20028;-79
2024/03/10 03:46:04;;;;;;;20.55;14.40;;;8.90;99.90;;;;;;5089440;28;20023;-79
2024/03/10 03:48:31;;;;;;;22.23;15.43;;;8.90;99.90;;;;;;5089034;28;20068;-79
2024/03/10 03:50:57;;;;;;;19.83;14.75;;;8.90;99.90;;;;;;5089154;28;20044;-79
2024/03/10 03:53:22;;;;;;;21.70;15.95;;;8.90;99.90;;;;;;5089141;28;20024;-79
2024/03/10 03:55:48;;;;;;;20.65;15.00;;;8.90;99.90;;;;;;5089324;28;20048;-79
2024/03/10 03:58:14;;;;;;;20.45;15.02;;;8.90;99.90;;;;;;5089888;28;20436;-79
2024/03/10 04:00:40;;;;;;;22.75;15.88;;;8.90;99.90;;;;;;5090631;28;20513;-78
2024/03/10 04:03:06;;;;;;;22.88;15.75;;;8.80;99.90;;;;;;5090762;28;20047;-79
2024/03/10 04:05:32;;;;;;;21.90;15.70;;;8.80;99.90;;;;;;5091244;28;20048;-79
2024/03/10 04:07:58;;;;;;;20.45;14.65;;;8.80;99.90;;;;;;5090008;28;20016;-78
2024/03/10 04:10:24;;;;;;;21.65;15.60;;;8.80;99.90;;;;;;5090837;28;20019;-78
2024/03/10 04:12:49;;;;;;;21.75;16.35;;;8.80;99.90;;;;;;5091194;28;20525;-78
2024/03/10 04:15:15;;;;;;;21.25;13.82;;;8.70;99.90;;;;;;5090500;28;20518;-79
2024/03/10 04:17:46;;;;;;;21.15;15.32;;;8.70;99.90;;;;;;5070299;28;20020;-79
2024/03/10 04:20:13;;;;;;;23.25;16.05;;;8.70;99.90;;;;;;5089202;28;20540;-79
2024/03/10 04:22:42;;;;;;;21.98;15.68;;;8.60;99.90;;;;;;5088410;28;20024;-79
2024/03/10 04:25:10;;;;;;;22.00;15.18;;;8.60;99.90;;;;;;5089378;28;20019;-79
2024/03/10 04:27:36;;;;;;;23.42;16.30;;;8.60;99.90;;;;;;5088346;28;20153;-79
2024/03/10 04:30:04;;;;;;;24.75;16.25;;;8.60;99.90;;;;;;5088649;28;20061;-79
2024/03/10 04:32:30;;;;;;;20.63;14.15;;;8.60;99.90;;;;;;5088495;28;20016;-79
2024/03/10 04:34:56;;;;;;;22.95;15.88;;;8.60;99.90;;;;;;5088506;28;20059;-79
2024/03/10 04:37:22;;;;;;;20.75;14.95;;;8.50;99.90;;;;;;5088767;28;20059;-78
2024/03/10 04:39:48;;;;;;;24.67;16.20;;;8.50;99.90;;;;;;5088448;28;20016;-79
2024/03/10 04:42:15;;;;;;;23.58;14.73;;;8.50;99.90;;;;;;5088723;28;20035;-80
2024/03/10 04:44:41;;;;;;;20.15;14.45;;;8.50;99.90;;;;;;5087917;28;20036;-79
2024/03/10 04:47:07;;;;;;;20.05;14.52;;;8.50;99.90;;;;;;5088573;28;20433;-79
2024/03/10 04:49:33;;;;;;;22.45;14.90;;;8.40;99.90;;;;;;5069642;28;20437;-79
2024/03/10 04:52:00;;;;;;;23.17;15.73;;;8.40;99.90;;;;;;5088416;28;20020;-79
2024/03/10 04:54:27;;;;;;;24.17;15.57;;;8.40;99.90;;;;;;5088054;28;20103;-79
2024/03/10 04:56:53;;;;;;;20.67;14.73;;;8.40;99.90;;;;;;5087711;28;20028;-79
2024/03/10 04:59:19;;;;;;;21.33;14.98;;;8.40;99.90;;;;;;5074035;28;20146;-79
2024/03/10 05:01:46;;;;;;;20.90;14.85;;;8.40;99.90;;;;;;5088337;28;20026;-78
2024/03/10 05:04:14;;;;;;;21.55;15.10;;;8.30;99.90;;;;;;5087902;28;20028;-79
2024/03/10 05:06:41;;;;;;;23.17;15.55;;;8.30;99.90;;;;;;5087948;28;20485;-79
2024/03/10 05:09:07;;;;;;;21.88;15.23;;;8.30;99.90;;;;;;5087878;28;20316;-78
2024/03/10 05:11:32;;;;;;;26.95;16.25;;;8.30;99.90;;;;;;5069962;28;20038;-79
2024/03/10 05:13:58;;;;;;;20.38;14.55;;;8.30;99.90;;;;;;5087673;28;20021;-79
2024/03/10 05:16:24;;;;;;;22.25;15.25;;;8.30;99.90;;;;;;5069581;28;20020;-79
2024/03/10 05:18:50;;;;;;;23.70;16.00;;;8.20;99.90;;;;;;5087448;28;20062;-79
2024/03/10 05:21:16;;;;;;;22.27;14.95;;;8.30;99.90;;;;;;5088449;28;20097;-78
2024/03/10 05:23:41;;;;;;;22.92;15.82;;;8.30;99.90;;;;;;5068370;28;20036;-78
2024/03/10 05:26:07;;;;;;;20.95;14.52;;;8.30;99.90;;;;;;5087639;28;20059;-78
2024/03/10 05:28:33;;;;;;;21.75;15.23;;;8.30;99.90;;;;;;5087746;28;20358;-79
2024/03/10 05:30:58;;;;;;;23.42;15.85;;;8.20;99.90;;;;;;5088298;28;20485;-73
2024/03/10 05:33:24;;;;;;;25.08;16.10;;;8.20;99.90;;;;;;5088411;28;20473;-79
2024/03/10 05:35:50;;;;;;;23.05;15.85;;;8.20;99.90;;;;;;5075440;28;20135;-79
2024/03/10 05:38:16;;;;;;;23.73;15.15;;;8.20;99.90;;;;;;5086595;28;20521;-79
2024/03/10 05:40:42;;;;;;;21.55;15.13;;;8.20;99.90;;;;;;5087274;28;20882;-79
2024/03/10 05:43:08;;;;;;;22.48;15.38;;;8.10;99.90;;;;;;5087035;28;20095;-79
2024/03/10 05:45:34;;;;;;;23.70;16.23;;;8.20;99.90;;;;;;5068874;28;20048;-79
2024/03/10 05:48:00;;;;;;;22.70;15.35;;;8.10;99.90;;;;;;5068511;28;20027;-79
2024/03/10 05:50:25;;;;;;;21.02;15.45;;;8.10;99.90;;;;;;5087028;28;20079;-79
2024/03/10 05:52:52;;;;;;;22.60;15.77;;;8.10;99.90;;;;;;5086324;28;20020;-79
2024/03/10 05:55:18;;;;;;;22.60;15.48;;;8.10;99.90;;;;;;5086842;28;20489;-79
2024/03/10 05:57:45;;;;;;;25.98;16.20;;;8.10;99.90;;;;;;5068071;28;20110;-79
2024/03/10 06:00:14;;;;;;;21.63;15.15;;;8.10;99.90;;;;;;5087137;28;20953;-79
2024/03/10 06:02:44;;;;;;;24.23;15.10;;;8.00;99.90;;;;;;5086666;28;20020;-79
2024/03/10 06:05:12;;;;;;;22.75;16.25;;;8.10;99.90;;;;;;5069138;28;20069;-79
2024/03/10 06:07:37;;;;;;;24.45;15.90;;;8.00;99.90;;;;;;5085988;28;20024;-78
2024/03/10 06:10:05;;;;;;;23.13;16.02;;;8.00;99.90;;;;;;5086874;28;20070;-79
2024/03/10 06:12:32;;;;;;;24.17;16.23;;;8.00;99.90;;;;;;5086651;28;20100;-79
2024/03/10 06:14:57;;;;;;;23.35;15.50;;;8.00;99.90;;;;;;5086610;28;20034;-79
2024/03/10 06:17:30;;;;;;;21.98;15.32;;;8.00;99.90;;;;;;5086934;28;20016;-79
2024/03/10 06:25:28;;;;;;;24.23;16.60;;;7.90;99.90;;;;;;5090169;28;20046;-77
2024/03/10 06:27:56;;;;;;;22.83;15.80;;;7.90;99.90;;;;;;5070874;28;20346;-79
2024/03/10 06:30:22;;;;;;;21.73;14.98;;;7.90;99.90;;;;;;5085084;28;20035;-78
2024/03/10 06:32:49;;;;;;;22.42;15.20;;;7.90;99.90;;;;;;5067741;28;20020;-79
2024/03/10 06:35:16;;;;;;;24.75;15.25;;;7.90;99.90;;;;;;5078638;28;20024;-80
2024/03/10 06:37:42;;;;;;;23.23;16.02;;;7.90;99.90;;;;;;5080426;28;20043;-78
2024/03/10 06:40:09;;;;;;;24.00;15.57;;;7.90;99.90;;;;;;5072160;28;20060;-79
2024/03/10 06:42:36;;;;;;;22.45;15.30;;;7.90;99.90;;;;;;5068146;28;20039;-79
2024/03/10 06:45:01;;;;;;;21.95;15.55;;;7.90;99.90;;;;;;5085958;28;20016;-79
2024/03/10 06:47:27;;;;;;;22.50;14.70;;;7.90;99.90;;;;;;5086460;28;20105;-78
2024/03/10 06:49:53;;;;;;;24.45;15.80;;;7.90;99.90;;;;;;5068520;28;20119;-79
2024/03/10 06:52:18;;;;;;;22.80;15.43;;;7.90;99.90;;;;;;5070583;28;20078;-79
2024/03/10 06:54:44;;;;;;;23.95;15.80;;;7.90;99.90;;;;;;5085837;28;20031;-79
2024/03/10 06:57:09;;;;;;;21.88;15.40;;;7.90;99.90;;;;;;5086389;28;20035;-78
2024/03/10 06:59:35;;;;;;;24.40;16.23;;;7.90;99.90;;;;;;5067640;28;20229;-79
2024/03/10 07:02:01;;;;;;;24.17;15.88;;;8.00;99.90;;;;;;5068002;28;20016;-79
2024/03/10 07:04:27;;;;;;;22.85;15.60;;;8.00;99.90;;;;;;5086057;28;20389;-78
2024/03/10 07:06:53;;;;;;;24.73;14.73;;;8.00;99.90;;;;;;5085842;28;20024;-79
2024/03/10 07:09:21;;;;;;;25.70;15.48;;;8.00;99.90;;;;;;5085812;28;20016;-80
2024/03/10 07:11:47;;;;;;;22.05;15.13;;;8.00;99.90;;;;;;5085827;28;20378;-79
2024/03/10 07:14:15;;;;;;;23.77;15.85;;;8.00;99.90;;;;;;5085450;28;20750;-79
2024/03/10 07:16:46;;;;;;;23.20;15.02;;;8.00;99.90;;;;;;5068284;28;20489;-80
2024/03/10 07:19:12;;;;;;;24.17;16.23;;;8.00;99.90;;;;;;5088490;28;20152;-80
2024/03/10 07:21:37;;;;;;;24.70;15.98;;;8.00;99.90;;;;;;5081613;28;20583;-80
2024/03/10 07:24:03;;;;;;;24.20;16.42;;;8.00;99.90;;;;;;5083337;28;20024;-79
2024/03/10 07:26:36;;;;;;;24.13;15.50;;;8.00;99.90;;;;;;5071222;28;20961;-80
2024/03/10 07:29:01;;;;;;;21.88;14.48;;;8.00;99.90;;;;;;5090122;28;20044;-80
2024/03/10 07:31:27;;;;;;;22.90;16.17;;;8.10;99.90;;;;;;5059118;28;20788;-78
2024/03/10 07:33:53;;;;;;;22.17;14.95;;;8.10;99.90;;;;;;5086634;28;20024;-77
2024/03/10 07:36:20;;;;;;;24.00;15.73;;;8.10;99.90;;;;;;5086681;28;20028;-78
2024/03/10 07:38:46;;;;;;;23.80;15.88;;;8.10;99.90;;;;;;5071051;28;20133;-78
2024/03/10 07:41:12;;;;;;;21.83;15.30;;;8.10;99.90;;;;;;5089843;28;20059;-78
2024/03/10 07:43:37;;;;;;;23.58;15.77;;;8.20;99.90;;;;;;5089541;28;20516;-79
2024/03/10 07:46:05;;;;;;;23.60;15.57;;;8.20;99.90;;;;;;5072089;28;20496;-79
2024/03/10 07:48:32;;;;;;;21.50;14.07;;;8.20;99.90;;;;;;5088635;28;20423;-79
2024/03/10 07:50:58;;;;;;;21.52;15.10;;;8.30;99.90;;;;;;5090352;28;20417;-79
2024/03/10 07:53:24;;;;;;;21.20;13.35;;;8.30;99.90;;;;;;5090675;28;20099;-79
2024/03/10 07:55:49;;;;;;;22.15;15.30;;;8.40;99.90;;;;;;5090114;28;21019;-79
2024/03/10 07:58:15;;;;;;;20.80;13.80;;;8.40;99.90;;;;;;5088830;28;20061;-79
2024/03/10 08:00:42;;;;;;;19.90;14.05;;;8.50;99.90;;;;;;5070680;28;20028;-79
2024/03/10 08:03:09;;;;;;;25.30;16.15;;;8.60;99.90;;;;;;5070545;28;20924;-79
2024/03/10 08:05:35;;;;;;;22.33;15.57;;;8.70;99.90;;;;;;5087706;28;20077;-79
2024/03/10 08:08:01;;;;;;;23.25;15.02;;;8.70;99.90;;;;;;5076287;28;20106;-79
2024/03/10 08:10:27;;;;;;;20.75;15.18;;;8.80;99.90;;;;;;5089791;28;20024;-78
2024/03/10 08:12:55;;;;;;;22.10;14.18;;;8.90;99.90;;;;;;5089196;28;20031;-79
2024/03/10 08:15:21;;;;;;;22.00;15.70;;;9.00;99.90;;;;;;5089291;28;20020;-79
2024/03/10 08:17:47;;;;;;;19.75;13.50;;;9.10;99.90;;;;;;5089357;28;20415;-79
2024/03/10 08:20:14;;;;;;;20.95;14.38;;;9.20;99.90;;;;;;5089068;28;20020;-79
2024/03/10 08:22:45;;;;;;;22.13;14.27;;;9.30;99.90;;;;;;5087097;28;20493;-79
2024/03/10 08:25:11;;;;;;;22.00;14.63;;;9.30;99.90;;;;;;5089435;28;20024;-79
2024/03/10 08:27:37;;;;;;;21.00;14.48;;;9.40;99.90;;;;;;5087426;28;20012;-79
2024/03/10 08:30:03;;;;;;;19.77;13.90;;;9.40;99.90;;;;;;5058434;28;20024;-79
2024/03/10 08:32:30;;;;;;;23.45;15.07;;;9.40;99.90;;;;;;5083113;28;20016;-79
2024/03/10 08:34:56;;;;;;;20.70;13.88;;;9.40;99.90;;;;;;5072072;28;20021;-79
2024/03/10 08:37:22;;;;;;;19.13;13.18;;;9.40;99.90;;;;;;5074801;28;20041;-79
2024/03/10 08:39:48;;;;;;;22.58;14.70;;;9.40;99.90;;;;;;5072025;28;20035;-79
2024/03/10 08:42:20;;;;;;;20.63;13.80;;;9.30;99.90;;;;;;5075025;28;20035;-79
2024/03/10 08:44:46;;;;;;;19.20;13.07;;;9.40;99.90;;;;;;5063440;28;20397;-78
2024/03/10 08:47:12;;;;;;;21.17;14.38;;;9.30;99.90;;;;;;5063392;28;20093;-77
2024/03/10 08:49:38;;;;;;;19.08;13.73;;;9.30;99.90;;;;;;5081165;28;20397;-77
2024/03/10 08:52:06;;;;;;;20.80;14.80;;;9.40;99.90;;;;;;5062226;28;20029;-77
2024/03/10 08:54:33;;;;;;;21.27;14.90;;;9.40;99.90;;;;;;5059804;28;20039;-78
2024/03/10 08:56:59;;;;;;;20.92;14.05;;;9.50;99.90;;;;;;5066092;28;20030;-77
2024/03/10 08:59:25;;;;;;;20.42;14.63;;;9.50;99.90;;;;;;5067283;28;20107;-77
2024/03/10 09:01:51;;;;;;;23.35;16.08;;;9.60;99.90;;;;;;5070351;28;20039;-77
2024/03/10 09:04:18;;;;;;;22.70;15.52;;;9.60;99.90;;;;;;5071396;28;20031;-78
2024/03/10 09:06:43;;;;;;;23.45;14.27;;;9.70;99.90;;;;;;5068363;28;20071;-79
2024/03/10 09:09:13;;;;;;;20.90;15.13;;;9.70;99.90;;;;;;5070505;28;20062;-75
2024/03/10 09:11:39;;;;;;;20.10;14.47;;;9.80;99.90;;;;;;5088324;28;20384;-78
2024/03/10 09:14:07;;;;;;;20.80;13.90;;;9.90;99.90;;;;;;5083197;28;20108;-78
2024/03/10 09:16:33;;;;;;;21.25;14.45;;;9.90;99.90;;;;;;5085789;28;20419;-77
2024/03/10 09:19:00;;;;;;;21.48;14.98;;;10.00;99.90;;;;;;5070383;28;20104;-78
2024/03/10 09:21:27;;;;;;;21.35;14.98;;;10.00;99.90;;;;;;5076435;28;20036;-78
2024/03/10 09:23:52;;;;;;;21.42;14.73;;;10.10;99.90;;;;;;5063537;28;20060;-78
2024/03/10 09:26:20;;;;;;;20.00;13.93;;;10.10;99.90;;;;;;5081262;28;20466;-78
2024/03/10 09:28:46;;;;;;;18.60;13.68;;;10.10;99.90;;;;;;5060862;28;20107;-79
2024/03/10 09:31:14;;;;;;;19.85;14.30;;;10.20;99.90;;;;;;5059030;28;20107;-79
2024/03/10 09:33:44;;;;;;;21.13;15.38;;;10.20;99.90;;;;;;5078917;28;20028;-78
2024/03/10 09:36:10;;;;;;;19.80;13.35;;;10.30;99.90;;;;;;5088185;28;20177;-79
2024/03/10 09:38:36;;;;;;;20.33;14.02;;;10.30;99.90;;;;;;5081604;28;20077;-79
2024/03/10 09:41:05;;;;;;;19.63;14.18;;;10.40;99.90;;;;;;5088221;28;20028;-79
2024/03/10 09:43:38;;;;;;;20.70;15.07;;;10.50;99.90;;;;;;5086290;28;20024;-80
2024/03/10 09:46:05;;;;;;;19.90;14.68;;;10.50;99.90;;;;;;5064085;28;20028;-79
2024/03/10 09:48:32;;;;;;;20.75;15.30;;;10.70;99.90;;;;;;5082116;28;20079;-79
2024/03/10 09:50:58;;;;;;;19.38;14.38;;;10.70;99.90;;;;;;5069220;28;20097;-79
2024/03/10 09:53:25;;;;;;;23.55;15.25;;;10.80;99.90;;;;;;5087345;28;20047;-79
2024/03/10 09:55:52;;;;;;;21.75;15.07;;;10.80;99.90;;;;;;5087217;28;20051;-79
2024/03/10 09:58:22;;;;;;;18.42;13.43;;;10.90;99.90;;;;;;5087853;28;20108;-80
2024/03/10 10:00:51;;;;;;;20.92;15.27;;;10.90;99.90;;;;;;5087071;28;20432;-79
2024/03/10 10:03:18;;;;;;;20.58;15.43;;;11.00;99.90;;;;;;5070152;28;20032;-79
2024/03/10 10:05:47;;;;;;;21.67;14.98;;;11.00;99.90;;;;;;5066668;28;21585;-80
2024/03/10 10:08:13;;;;;;;21.17;14.50;;;11.10;99.90;;;;;;5076630;28;20038;-79
2024/03/10 10:10:49;;;;;;;18.65;13.55;;;11.10;99.90;;;;;;5073257;28;20139;-80
2024/03/10 10:13:24;;;;;;;21.02;16.00;;;11.20;99.90;;;;;;5082950;28;20024;-80
2024/03/10 10:15:53;;;;;;;19.27;14.85;;;11.20;99.90;;;;;;5068267;28;20501;-79
2024/03/10 10:18:21;;;;;;;20.77;15.50;;;11.30;99.90;;;;;;5087971;28;20024;-78
2024/03/10 10:20:51;;;;;;;21.67;15.68;;;11.40;99.90;;;;;;5088680;28;20433;-80
2024/03/10 10:23:23;;;;;;;22.95;15.98;;;11.40;99.90;;;;;;5081166;28;20045;-78
2024/03/10 10:25:52;;;;;;;19.52;14.10;;;11.40;99.90;;;;;;5076377;28;20191;-77
2024/03/10 10:28:18;;;;;;;21.20;14.68;;;11.50;99.90;;;;;;5057154;28;20388;-80
2024/03/10 10:30:44;;;;;;;20.92;15.32;;;11.50;99.90;;;;;;5086699;28;20020;-78
2024/03/10 10:33:12;;;;;;;20.67;14.68;;;11.60;99.90;;;;;;5087601;28;20027;-78
2024/03/10 10:35:42;;;;;;;20.10;15.45;;;11.70;99.90;;;;;;5061942;28;20031;-79
2024/03/10 10:38:12;;;;;;;21.27;15.80;;;11.80;99.90;;;;;;5086603;28;20030;-79
2024/03/10 10:40:47;;;;;;;21.05;14.85;;;11.80;99.90;;;;;;5050499;28;20116;-78
2024/03/10 10:43:13;;;;;;;19.75;15.05;;;11.90;99.90;;;;;;5071632;28;20044;-78
2024/03/10 10:45:43;;;;;;;21.25;14.90;;;12.00;99.90;;;;;;5085253;28;20099;-78
2024/03/10 10:48:10;;;;;;;20.42;15.05;;;12.10;99.90;;;;;;5086832;28;20020;-78
2024/03/10 10:50:37;;;;;;;19.73;14.50;;;12.10;99.90;;;;;;5085415;28;20445;-78
2024/03/10 10:53:06;;;;;;;19.65;15.05;;;12.10;99.90;;;;;;5067909;28;20073;-78
2024/03/10 10:55:33;;;;;;;24.00;14.40;;;12.20;99.90;;;;;;5085890;28;20213;-78
2024/03/10 10:58:04;;;;;;;21.42;15.32;;;12.20;99.90;;;;;;5086097;28;20103;-78
2024/03/10 11:00:30;;;;;;;20.98;14.77;;;12.20;99.90;;;;;;5059568;28;20397;-78
2024/03/10 11:03:25;;;;;;;19.42;15.02;;;12.30;99.90;;;;;;5079512;28;20552;-78
2024/03/10 11:06:19;;;;;;;21.23;15.48;;;12.40;99.90;;;;;;5055920;28;20079;-78
2024/03/10 11:08:49;;;;;;;19.95;15.38;;;12.50;99.90;;;;;;5034395;28;20028;-78
2024/03/10 11:11:44;;;;;;;21.15;15.07;;;12.50;99.90;;;;;;5064323;28;20106;-78
2024/03/10 11:14:14;;;;;;;17.63;13.40;;;12.60;99.90;;;;;;5080399;28;20099;-82
2024/03/10 11:16:40;;;;;;;19.95;15.20;;;12.60;99.90;;;;;;5083267;28;20481;-77
2024/03/10 11:19:21;;;;;;;19.15;14.32;;;12.60;99.90;;;;;;5077743;28;20024;-78
2024/03/10 11:21:50;;;;;;;19.98;14.82;;;12.70;99.90;;;;;;5062246;28;20024;-78
2024/03/10 11:24:18;;;;;;;17.65;14.20;;;12.80;99.90;;;;;;5074532;28;20027;-78
2024/03/10 11:26:45;;;;;;;19.15;14.57;;;12.90;99.90;;;;;;5083974;28;20046;-78
2024/03/10 11:29:26;;;;;;;19.70;14.98;;;13.00;99.90;;;;;;5070577;28;20012;-78
2024/03/10 11:31:56;;;;;;;19.33;14.38;;;13.10;99.90;;;;;;5050763;28;20481;-78
2024/03/10 11:34:23;;;;;;;17.88;13.90;;;13.20;99.90;;;;;;5074457;28;20028;-78
2024/03/10 11:36:48;;;;;;;20.00;15.20;;;13.30;99.90;;;;;;5067295;28;20028;-77
2024/03/10 11:39:19;;;;;;;20.95;15.40;;;13.30;99.90;;;;;;5065451;28;20035;-77
2024/03/10 11:41:51;;;;;;;19.40;13.60;;;13.40;99.90;;;;;;5051943;28;20024;-77
2024/03/10 11:44:17;;;;;;;21.45;14.50;;;13.40;99.90;;;;;;5085410;28;20028;-77
2024/03/10 11:46:43;;;;;;;19.90;14.70;;;13.50;99.90;;;;;;5075584;28;20134;-78
2024/03/10 11:49:11;;;;;;;18.35;14.48;;;13.50;99.90;;;;;;5079185;28;20093;-78
2024/03/10 11:51:38;;;;;;;17.95;13.90;;;13.50;99.90;;;;;;5072398;28;20493;-78
2024/03/10 11:54:07;;;;;;;20.95;15.57;;;13.60;99.90;;;;;;5057210;28;20028;-77
2024/03/10 11:56:34;;;;;;;19.67;14.68;;;13.50;99.90;;;;;;5069194;28;20054;-77
2024/03/10 11:59:00;;;;;;;20.80;15.80;;;13.50;99.90;;;;;;5070305;28;20020;-78
2024/03/10 12:01:27;;;;;;;19.63;15.00;;;13.50;99.90;;;;;;5067029;28;20066;-77
2024/03/10 12:03:55;;;;;;;17.70;13.73;;;13.50;99.90;;;;;;5048509;28;20036;-78
2024/03/10 12:06:23;;;;;;;19.02;15.00;;;13.60;99.90;;;;;;5080127;28;20480;-78
2024/03/10 12:08:50;;;;;;;21.52;15.18;;;13.60;99.90;;;;;;5074609;28;20043;-77
2024/03/10 12:11:15;;;;;;;19.48;15.43;;;13.60;99.90;;;;;;5072974;28;20425;-78
2024/03/10 12:13:42;;;;;;;19.00;14.65;;;13.70;99.90;;;;;;5072473;28;20116;-78
2024/03/10 12:16:10;;;;;;;19.77;15.13;;;13.80;99.90;;;;;;5073833;28;20031;-78
2024/03/10 12:18:37;;;;;;;19.38;14.25;;;13.90;99.90;;;;;;5052391;28;20028;-78
2024/03/10 12:21:10;;;;;;;19.15;14.40;;;14.00;99.90;;;;;;5070883;28;20054;-78
2024/03/10 12:23:36;;;;;;;19.63;15.48;;;14.10;99.90;;;;;;5082339;28;20079;-77
2024/03/10 12:26:15;;;;;;;19.60;14.90;;;14.10;99.90;;;;;;5074315;28;20392;-75
2024/03/10 12:28:48;;;;;;;20.52;15.80;;;14.20;99.90;;;;;;5089059;28;20024;-74
2024/03/10 12:31:16;;;;;;;21.58;15.15;;;14.30;99.90;;;;;;5085346;28;20020;-77
2024/03/10 12:33:44;;;;;;;20.08;15.85;;;14.30;99.90;;;;;;5083722;28;20115;-77
2024/03/10 12:36:10;;;;;;;20.17;16.27;;;14.40;99.90;;;;;;5081185;28;20032;-76
2024/03/10 12:38:39;;;;;;;22.02;17.20;;;14.40;99.90;;;;;;5074303;28;20028;-78
2024/03/10 12:41:14;;;;;;;19.83;15.70;;;14.40;99.90;;;;;;5074928;28;20070;-77
2024/03/10 12:43:41;;;;;;;19.77;14.88;;;14.50;99.90;;;;;;5072783;28;20073;-77
2024/03/10 12:46:14;;;;;;;20.35;15.30;;;14.50;99.90;;;;;;5078276;28;20043;-78
2024/03/10 12:48:41;;;;;;;21.42;15.98;;;14.50;99.90;;;;;;5074321;28;20383;-76
2024/03/10 12:51:09;;;;;;;20.88;16.65;;;14.50;99.90;;;;;;5056136;28;20122;-76
2024/03/10 12:53:36;;;;;;;20.15;16.27;;;14.50;99.90;;;;;;5075446;28;20024;-76